Lake Wilson, Minnesota
Current Conditions -  °F | °C
As of 2:14 AM on Saturday 25 Oct 2014 (Local Time) from KDVP Reporting Station
Clear Clear  
Wind Chill: 53°   Ceiling: Unl
Heat Index: 53°   Visibility: 10mi
Dew Point: 41°   Wind: 0mph
Humidity: 63%   Direction: NA
Pressure: 30.04"   Gusts: NA
Location:  44°N, 95.95°W
Report Text: KDVP 250714Z AUTO 00000KT 10SM CLR 12/05 A3004 RMK AO2 T01180049
Loading
Personal Weather Stations






























Interactive Weather Map
Tropical Storm Tracking
New forecast layout! Learn more

10-Day Weather Forecast

Advertisements
Track Severe Weather on mobile